createdAt,value
2017-04-27T00:01:33.537Z,0
2017-04-27T00:02:13.994Z,0
2017-04-27T00:02:54.533Z,0
2017-04-27T00:03:34.977Z,0
2017-04-27T00:04:15.471Z,0
2017-04-27T00:04:55.943Z,0
2017-04-27T00:05:36.450Z,0
2017-04-27T00:06:16.921Z,0
2017-04-27T00:06:57.411Z,0
2017-04-27T00:07:37.943Z,0
2017-04-27T00:08:18.440Z,0
2017-04-27T00:08:58.935Z,0
2017-04-27T00:09:39.455Z,0
2017-04-27T00:10:19.959Z,0
2017-04-27T00:11:00.421Z,0
2017-04-27T00:11:40.908Z,0
2017-04-27T00:12:21.414Z,0
2017-04-27T00:13:01.896Z,0
2017-04-27T00:13:42.396Z,0
2017-04-27T00:14:22.928Z,0
2017-04-27T00:15:03.415Z,0
2017-04-27T00:15:43.859Z,0
2017-04-27T00:16:24.348Z,0
2017-04-27T00:17:04.858Z,0
2017-04-27T00:17:45.368Z,0
2017-04-27T00:18:25.839Z,0
2017-04-27T00:19:06.350Z,0
2017-04-27T00:19:46.824Z,0
2017-04-27T00:20:27.326Z,0
2017-04-27T00:21:07.824Z,0
2017-04-27T00:23:21.146Z,0
2017-04-27T00:24:01.520Z,0
2017-04-27T00:24:41.996Z,0
2017-04-27T00:25:22.497Z,0
2017-04-27T00:26:02.967Z,0
2017-04-27T00:26:43.452Z,0
2017-04-27T00:27:23.940Z,0
2017-04-27T00:28:04.402Z,0
2017-04-27T00:28:44.928Z,0
2017-04-27T00:29:25.431Z,0
2017-04-27T00:30:05.920Z,0
2017-04-27T00:30:46.408Z,0
2017-04-27T00:31:26.936Z,0
2017-04-27T00:32:07.391Z,0
2017-04-27T00:34:20.624Z,0
2017-04-27T00:35:01.074Z,0
2017-04-27T00:35:41.522Z,0
2017-04-27T00:36:22.037Z,0
2017-04-27T00:37:02.496Z,0
2017-04-27T00:37:43.059Z,0
2017-04-27T00:38:23.531Z,0
2017-04-27T00:39:04.048Z,0
2017-04-27T00:39:44.519Z,0
2017-04-27T00:40:25.043Z,0
2017-04-27T00:41:05.530Z,0
2017-04-27T00:41:46.003Z,0
2017-04-27T00:42:26.523Z,0
2017-04-27T00:43:07.028Z,0
2017-04-27T00:43:47.493Z,0
2017-04-27T00:44:27.982Z,0
2017-04-27T00:45:08.454Z,0
2017-04-27T00:45:48.955Z,0
2017-04-27T00:46:29.401Z,0
2017-04-27T00:47:09.929Z,0
2017-04-27T00:47:50.424Z,0
2017-04-27T00:48:30.927Z,0
2017-04-27T00:49:11.410Z,0
2017-04-27T00:49:51.898Z,0
2017-04-27T00:50:32.362Z,0
2017-04-27T00:51:12.869Z,0
2017-04-27T00:51:53.354Z,0
2017-04-27T00:52:34.007Z,0
2017-04-27T00:53:14.499Z,0
2017-04-27T00:53:55.006Z,0
2017-04-27T00:54:35.506Z,0
2017-04-27T00:55:16.002Z,0
2017-04-27T00:55:56.484Z,0
2017-04-27T00:56:36.996Z,0
2017-04-27T00:57:17.520Z,0
2017-04-27T00:57:58.000Z,0
2017-04-27T00:58:38.478Z,0
2017-04-27T00:59:18.947Z,0
2017-04-27T00:59:59.421Z,0
2017-04-27T01:00:39.906Z,0
2017-04-27T01:01:20.399Z,0
2017-04-27T01:02:00.904Z,0
2017-04-27T01:02:41.387Z,0
2017-04-27T01:03:21.904Z,0
2017-04-27T01:04:02.399Z,0
2017-04-27T01:04:42.876Z,0
2017-04-27T01:05:23.379Z,0
2017-04-27T01:06:03.873Z,0
2017-04-27T01:06:44.330Z,0
2017-04-27T01:07:24.820Z,0
2017-04-27T01:08:05.278Z,0
2017-04-27T01:08:45.774Z,0
2017-04-27T01:09:26.283Z,0
2017-04-27T01:10:06.751Z,0
2017-04-27T01:10:47.247Z,0
2017-04-27T01:11:27.741Z,0
2017-04-27T01:12:08.212Z,0
2017-04-27T01:12:48.680Z,0
2017-04-27T01:13:29.191Z,0
2017-04-27T01:14:09.658Z,0
2017-04-27T01:14:50.158Z,0
2017-04-27T01:15:30.643Z,0
2017-04-27T01:16:11.114Z,0
2017-04-27T01:16:51.622Z,0
2017-04-27T01:17:32.100Z,0
2017-04-27T01:18:12.588Z,0
2017-04-27T01:18:53.083Z,0
2017-04-27T01:19:33.570Z,0
2017-04-27T01:20:14.064Z,0
2017-04-27T01:20:54.573Z,0
2017-04-27T01:21:35.108Z,0
2017-04-27T01:22:15.595Z,0
2017-04-27T01:22:56.064Z,0
2017-04-27T01:23:36.570Z,0
2017-04-27T01:24:17.029Z,0
2017-04-27T01:24:57.557Z,0
2017-04-27T01:25:38.027Z,0
2017-04-27T01:26:18.492Z,0
2017-04-27T01:26:59.002Z,0
2017-04-27T01:27:39.499Z,0
2017-04-27T01:28:20.021Z,0
2017-04-27T01:29:00.497Z,0
2017-04-27T01:29:40.997Z,0
2017-04-27T01:30:21.510Z,0
2017-04-27T01:31:01.964Z,0
2017-04-27T01:31:42.446Z,0
2017-04-27T01:32:22.900Z,0
2017-04-27T01:33:03.393Z,0
2017-04-27T01:33:43.880Z,0
2017-04-27T01:34:24.374Z,0
2017-04-27T01:35:04.840Z,0
2017-04-27T01:35:45.344Z,0
2017-04-27T01:36:25.853Z,0
2017-04-27T01:37:06.329Z,0
2017-04-27T01:37:46.828Z,0
2017-04-27T01:38:27.289Z,0
2017-04-27T01:39:07.772Z,0
2017-04-27T01:39:48.304Z,0
2017-04-27T01:40:28.774Z,0
2017-04-27T01:41:09.249Z,0
2017-04-27T01:41:49.738Z,0
2017-04-27T01:42:30.212Z,0
2017-04-27T01:43:10.721Z,0
2017-04-27T01:43:51.192Z,0
2017-04-27T01:44:31.685Z,0
2017-04-27T01:45:12.135Z,0
2017-04-27T01:45:52.615Z,0
2017-04-27T01:46:33.096Z,0
2017-04-27T01:47:13.602Z,0
2017-04-27T01:47:54.108Z,0
2017-04-27T01:48:34.602Z,0
2017-04-27T01:49:15.084Z,0
2017-04-27T01:49:55.534Z,0
2017-04-27T01:50:36.034Z,0
2017-04-27T01:51:16.583Z,0
2017-04-27T01:51:57.042Z,0
2017-04-27T01:52:37.540Z,0
2017-04-27T01:53:18.000Z,0
2017-04-27T01:53:58.486Z,0
2017-04-27T01:54:38.949Z,0
2017-04-27T01:55:19.466Z,0
2017-04-27T01:55:59.924Z,0
2017-04-27T01:56:40.424Z,0
2017-04-27T01:57:20.875Z,0
2017-04-27T01:58:01.387Z,0
2017-04-27T01:58:41.874Z,0
2017-04-27T01:59:22.380Z,0
2017-04-27T02:00:02.885Z,0
2017-04-27T02:02:36.424Z,0
2017-04-27T02:03:16.831Z,0
2017-04-27T02:03:57.307Z,0
2017-04-27T02:04:37.764Z,0
2017-04-27T02:05:18.259Z,0
2017-04-27T02:05:58.721Z,0
2017-04-27T02:06:39.204Z,0
2017-04-27T02:07:19.712Z,0
2017-04-27T02:08:00.178Z,0
2017-04-27T02:08:40.639Z,0
2017-04-27T02:09:21.145Z,0
2017-04-27T02:10:01.637Z,0
2017-04-27T02:10:42.145Z,0
2017-04-27T02:11:22.580Z,0
2017-04-27T02:12:03.072Z,0
2017-04-27T02:12:43.568Z,0
2017-04-27T02:13:24.053Z,0
2017-04-27T02:14:04.553Z,0
2017-04-27T02:14:45.049Z,0
2017-04-27T02:15:25.547Z,0
2017-04-27T02:16:06.038Z,0
2017-04-27T02:16:46.547Z,0
2017-04-27T02:17:26.986Z,0
2017-04-27T02:18:07.511Z,0
2017-04-27T02:18:47.978Z,0
2017-04-27T02:19:28.460Z,0
2017-04-27T02:20:08.953Z,0
2017-04-27T02:20:49.446Z,0
2017-04-27T02:21:29.949Z,0
2017-04-27T02:22:10.397Z,0
2017-04-27T02:22:50.876Z,0
2017-04-27T02:23:31.365Z,0
2017-04-27T02:24:11.814Z,0
2017-04-27T02:24:52.333Z,0
2017-04-27T02:25:32.826Z,0
2017-04-27T02:26:13.304Z,0
2017-04-27T02:26:53.801Z,0
2017-04-27T02:27:34.290Z,0
2017-04-27T02:28:14.782Z,0
2017-04-27T02:28:55.277Z,0
2017-04-27T02:29:35.759Z,0
2017-04-27T02:30:16.233Z,0
2017-04-27T02:30:56.719Z,0
2017-04-27T02:31:37.191Z,0
2017-04-27T02:32:17.656Z,0
2017-04-27T02:32:58.144Z,0
2017-04-27T02:33:38.617Z,0
2017-04-27T02:34:19.115Z,0
2017-04-27T02:34:59.598Z,0
2017-04-27T02:35:40.080Z,0
2017-04-27T02:36:20.569Z,0
2017-04-27T02:38:39.703Z,0
2017-04-27T02:39:20.124Z,0
2017-04-27T02:40:00.637Z,0
2017-04-27T02:40:41.102Z,0
2017-04-27T02:41:21.579Z,0
2017-04-27T02:42:02.047Z,0
2017-04-27T02:42:42.539Z,0
2017-04-27T02:43:23.064Z,0
2017-04-27T02:44:03.573Z,0
2017-04-27T02:44:44.051Z,0
2017-04-27T02:45:24.543Z,0
2017-04-27T02:46:05.072Z,0
2017-04-27T02:46:45.532Z,0
2017-04-27T02:47:26.098Z,0
2017-04-27T02:48:06.626Z,0
2017-04-27T02:48:47.057Z,0
2017-04-27T02:49:27.575Z,0
2017-04-27T02:50:08.061Z,0
2017-04-27T02:50:48.512Z,0
2017-04-27T02:51:29.025Z,0
2017-04-27T02:52:09.536Z,0
2017-04-27T02:52:50.012Z,0
2017-04-27T02:53:30.499Z,0
2017-04-27T02:54:10.984Z,0
2017-04-27T02:54:51.501Z,0
2017-04-27T02:55:31.981Z,0
2017-04-27T02:56:12.453Z,0
2017-04-27T02:56:52.958Z,0
2017-04-27T02:57:33.459Z,0
2017-04-27T02:58:13.948Z,0
2017-04-27T02:58:54.430Z,0
2017-04-27T02:59:34.924Z,0
2017-04-27T03:00:15.395Z,0
2017-04-27T03:00:55.875Z,0
2017-04-27T03:01:36.344Z,0
2017-04-27T03:02:16.842Z,0
2017-04-27T03:02:57.346Z,0
2017-04-27T03:03:37.903Z,0
2017-04-27T03:04:18.380Z,0
2017-04-27T03:04:58.894Z,0
2017-04-27T03:05:39.371Z,0
2017-04-27T03:06:19.868Z,0
2017-04-27T03:07:00.342Z,0
2017-04-27T03:07:40.829Z,0
2017-04-27T03:08:21.311Z,0
2017-04-27T03:09:01.806Z,0
2017-04-27T03:09:42.278Z,0
2017-04-27T03:10:22.767Z,0
2017-04-27T03:11:03.240Z,0
2017-04-27T03:11:43.730Z,0
2017-04-27T03:12:24.225Z,0
2017-04-27T03:13:04.704Z,0
2017-04-27T03:13:45.215Z,0
2017-04-27T03:14:25.703Z,0
2017-04-27T03:15:06.172Z,0
2017-04-27T03:15:46.662Z,0
2017-04-27T03:16:27.173Z,0
2017-04-27T03:17:07.656Z,0
2017-04-27T03:17:48.131Z,0
2017-04-27T03:18:28.628Z,0
2017-04-27T03:19:09.070Z,0
2017-04-27T03:19:49.550Z,0
2017-04-27T03:20:30.026Z,0
2017-04-27T03:21:10.491Z,0
2017-04-27T03:21:50.985Z,0
2017-04-27T03:22:31.462Z,0
2017-04-27T03:23:11.982Z,0
2017-04-27T03:23:52.439Z,0
2017-04-27T03:24:32.929Z,0
2017-04-27T03:25:13.397Z,0
2017-04-27T03:25:53.927Z,0
2017-04-27T03:26:34.403Z,0
2017-04-27T03:27:14.918Z,0
2017-04-27T03:27:55.419Z,0
2017-04-27T03:28:35.918Z,0
2017-04-27T03:29:16.400Z,0
2017-04-27T03:29:56.886Z,0
2017-04-27T03:30:37.378Z,0
2017-04-27T03:31:17.914Z,0
2017-04-27T03:31:58.417Z,0
2017-04-27T03:32:38.888Z,0
2017-04-27T03:33:19.380Z,0
2017-04-27T03:33:59.876Z,0
2017-04-27T03:34:40.367Z,0
2017-04-27T03:35:20.884Z,0
2017-04-27T03:36:01.386Z,0
2017-04-27T03:36:41.859Z,0
2017-04-27T03:37:22.349Z,0
2017-04-27T03:38:02.847Z,0
2017-04-27T03:38:43.311Z,0
2017-04-27T03:39:23.832Z,0
2017-04-27T03:40:04.366Z,0
2017-04-27T03:40:44.896Z,0
2017-04-27T03:41:25.346Z,0
2017-04-27T03:42:05.822Z,0
2017-04-27T03:42:46.372Z,0
2017-04-27T03:43:26.840Z,0
2017-04-27T03:44:07.329Z,0
2017-04-27T03:44:47.861Z,0
2017-04-27T03:45:28.326Z,0
2017-04-27T03:46:08.835Z,0
2017-04-27T03:46:49.401Z,0
2017-04-27T03:47:29.888Z,0
2017-04-27T03:48:10.410Z,0
2017-04-27T03:48:50.914Z,0
2017-04-27T03:49:31.415Z,5
2017-04-27T03:50:11.885Z,5
2017-04-27T03:50:52.365Z,5
2017-04-27T03:51:32.880Z,5
2017-04-27T03:52:13.338Z,5
2017-04-27T03:52:53.816Z,5
2017-04-27T03:53:34.296Z,5
2017-04-27T03:54:14.802Z,5
2017-04-27T03:54:55.267Z,5
2017-04-27T03:55:35.765Z,5
2017-04-27T03:56:16.252Z,5
2017-04-27T03:56:56.774Z,5
2017-04-27T03:57:38.239Z,10
2017-04-27T03:58:18.720Z,10
2017-04-27T03:58:59.222Z,10
2017-04-27T03:59:39.668Z,10
2017-04-27T04:00:20.139Z,10
2017-04-27T04:01:00.646Z,10
2017-04-27T04:01:41.171Z,10
2017-04-27T04:02:21.682Z,10
2017-04-27T04:03:02.160Z,10
2017-04-27T04:03:42.645Z,15
2017-04-27T04:04:23.142Z,15
2017-04-27T04:05:03.616Z,15
2017-04-27T04:05:44.106Z,15
2017-04-27T04:06:24.595Z,15
2017-04-27T04:07:05.116Z,15
2017-04-27T04:07:45.629Z,20
2017-04-27T04:08:26.127Z,20
2017-04-27T04:09:06.609Z,20
2017-04-27T04:09:47.100Z,20
2017-04-27T04:10:27.589Z,20
2017-04-27T04:11:08.105Z,20
2017-04-27T04:11:48.575Z,25
2017-04-27T04:12:29.180Z,25
2017-04-27T04:13:09.669Z,25
2017-04-27T04:13:50.168Z,25
2017-04-27T04:14:30.616Z,25
2017-04-27T04:15:11.127Z,25
2017-04-27T04:15:51.620Z,30
2017-04-27T04:16:32.078Z,30
2017-04-27T04:17:12.572Z,30
2017-04-27T04:17:53.074Z,30
2017-04-27T04:18:33.559Z,35
2017-04-27T04:19:14.046Z,35
2017-04-27T04:21:52.599Z,35
2017-04-27T04:22:33.078Z,40
2017-04-27T04:23:13.572Z,40
2017-04-27T04:23:54.039Z,40
2017-04-27T04:24:34.548Z,40
2017-04-27T04:25:15.025Z,40
2017-04-27T04:25:55.567Z,45
2017-04-27T04:26:36.053Z,45
2017-04-27T04:27:16.570Z,45
2017-04-27T04:27:57.036Z,45
2017-04-27T04:28:37.493Z,50
2017-04-27T04:29:17.990Z,50
2017-04-27T04:29:58.494Z,50
2017-04-27T04:30:39.013Z,60
2017-04-27T04:31:19.490Z,60
2017-04-27T04:31:59.948Z,60
2017-04-27T04:32:40.422Z,65
2017-04-27T04:33:20.895Z,70
2017-04-27T04:34:01.406Z,75
2017-04-27T04:34:41.894Z,75
2017-04-27T04:35:22.355Z,80
2017-04-27T04:36:02.840Z,70
2017-04-27T04:36:43.398Z,65
2017-04-27T04:37:23.855Z,65
2017-04-27T04:38:04.340Z,65
2017-04-27T04:38:44.840Z,60
2017-04-27T04:39:25.345Z,60
2017-04-27T04:40:05.806Z,60
2017-04-27T04:40:46.298Z,60
2017-04-27T04:41:26.802Z,60
2017-04-27T04:42:07.258Z,60
2017-04-27T04:42:47.748Z,60
2017-04-27T04:43:28.221Z,65
2017-04-27T04:44:08.734Z,65
2017-04-27T04:44:49.244Z,65
2017-04-27T04:45:29.709Z,65
2017-04-27T04:46:10.213Z,65
2017-04-27T04:46:50.643Z,65
2017-04-27T04:47:31.105Z,65
2017-04-27T04:48:11.603Z,65
2017-04-27T04:48:52.052Z,65
2017-04-27T04:49:32.568Z,70
2017-04-27T04:50:13.045Z,70
2017-04-27T04:50:53.523Z,70
2017-04-27T04:51:33.999Z,70
2017-04-27T04:52:14.510Z,70
2017-04-27T04:52:54.991Z,70
2017-04-27T04:53:35.462Z,70
2017-04-27T04:54:15.971Z,70
2017-04-27T04:54:56.463Z,70
2017-04-27T04:55:36.961Z,75
2017-04-27T04:56:17.445Z,75
2017-04-27T04:56:57.952Z,75
2017-04-27T04:57:38.436Z,80
2017-04-27T04:58:18.938Z,80
2017-04-27T04:58:59.389Z,80
2017-04-27T04:59:39.875Z,80
2017-04-27T05:00:20.360Z,80
2017-04-27T05:01:00.839Z,80
2017-04-27T05:01:41.325Z,80
2017-04-27T05:02:21.813Z,80
2017-04-27T05:03:02.344Z,80
2017-04-27T05:03:42.838Z,80
2017-04-27T05:04:23.346Z,80
2017-04-27T05:05:03.791Z,80
2017-04-27T05:05:44.266Z,80
2017-04-27T05:07:57.483Z,80
2017-04-27T05:08:37.921Z,80
2017-04-27T05:09:18.412Z,80
2017-04-27T05:09:58.921Z,80
2017-04-27T05:10:39.407Z,80
2017-04-27T05:11:19.900Z,85
2017-04-27T05:12:00.394Z,85
2017-04-27T05:12:40.902Z,85
2017-04-27T05:13:21.389Z,85
2017-04-27T05:14:01.871Z,90
2017-04-27T05:14:42.348Z,90
2017-04-27T05:15:22.835Z,90
2017-04-27T05:16:03.290Z,90
2017-04-27T05:16:43.799Z,90
2017-04-27T05:17:24.286Z,95
2017-04-27T05:18:04.755Z,95
2017-04-27T05:18:45.274Z,95
2017-04-27T05:19:25.768Z,95
2017-04-27T05:20:06.248Z,100
2017-04-27T05:20:46.742Z,100
2017-04-27T05:21:27.271Z,100
2017-04-27T05:22:07.748Z,100
2017-04-27T05:22:48.274Z,100
2017-04-27T05:23:28.782Z,100
2017-04-27T05:24:09.268Z,100
2017-04-27T05:24:49.782Z,100
2017-04-27T05:25:30.265Z,100
2017-04-27T05:26:10.758Z,100
2017-04-27T05:26:51.210Z,100
2017-04-27T05:27:31.713Z,105
2017-04-27T05:28:12.181Z,105
2017-04-27T05:28:52.702Z,105
2017-04-27T05:29:33.180Z,105
2017-04-27T05:30:13.667Z,105
2017-04-27T05:30:54.143Z,105
2017-04-27T05:31:34.652Z,105
2017-04-27T05:32:15.146Z,105
2017-04-27T05:32:55.669Z,105
2017-04-27T05:33:36.159Z,110
2017-04-27T05:34:16.667Z,110
2017-04-27T05:34:57.125Z,110
2017-04-27T05:35:37.602Z,110
2017-04-27T05:36:18.149Z,110
2017-04-27T05:36:58.678Z,110
2017-04-27T05:37:39.130Z,110
2017-04-27T05:38:19.629Z,110
2017-04-27T05:39:00.145Z,110
2017-04-27T05:39:40.637Z,110
2017-04-27T05:40:21.104Z,110
2017-04-27T05:41:01.602Z,110
2017-04-27T05:41:42.093Z,115
2017-04-27T05:42:22.603Z,115
2017-04-27T05:43:03.093Z,115
2017-04-27T05:43:43.606Z,115
2017-04-27T05:44:24.188Z,115
2017-04-27T05:45:04.707Z,115
2017-04-27T05:45:45.166Z,120
2017-04-27T05:46:25.665Z,120
2017-04-27T05:47:06.118Z,120
2017-04-27T05:47:46.594Z,120
2017-04-27T05:48:27.086Z,120
2017-04-27T05:49:07.527Z,120
2017-04-27T05:49:48.062Z,120
2017-04-27T05:50:28.498Z,120
2017-04-27T05:51:09.014Z,120
2017-04-27T05:51:49.524Z,125
2017-04-27T05:52:30.023Z,125
2017-04-27T05:53:10.514Z,125
2017-04-27T05:53:51.005Z,125
2017-04-27T05:54:31.502Z,125
2017-04-27T05:55:11.971Z,125
2017-04-27T05:55:52.491Z,125
2017-04-27T05:56:32.964Z,125
2017-04-27T05:57:13.499Z,120
2017-04-27T05:57:53.995Z,120
2017-04-27T05:58:34.462Z,120
2017-04-27T05:59:15.043Z,120
2017-04-27T05:59:55.510Z,120
2017-04-27T06:00:36.054Z,120
2017-04-27T06:01:16.536Z,120
2017-04-27T06:01:57.041Z,125
2017-04-27T06:02:37.482Z,125
2017-04-27T06:03:17.983Z,125
2017-04-27T06:03:58.654Z,135
2017-04-27T06:04:39.173Z,140
2017-04-27T06:05:19.697Z,140
2017-04-27T06:06:00.169Z,140
2017-04-27T06:06:40.701Z,140
2017-04-27T06:07:22.502Z,150
2017-04-27T06:08:05.441Z,160
2017-04-27T06:08:45.942Z,175
2017-04-27T06:09:27.893Z,180
2017-04-27T06:10:08.460Z,190
2017-04-27T06:10:48.941Z,200
2017-04-27T06:11:30.173Z,205
2017-04-27T06:12:10.680Z,205
2017-04-27T06:12:54.592Z,215
2017-04-27T06:13:35.552Z,220
2017-04-27T06:14:18.394Z,230
2017-04-27T06:14:59.477Z,245
2017-04-27T06:15:42.360Z,255
2017-04-27T06:16:22.869Z,260
2017-04-27T06:17:03.393Z,260
2017-04-27T06:17:43.874Z,260
2017-04-27T06:18:25.038Z,255
2017-04-27T06:19:06.380Z,240
2017-04-27T06:19:47.411Z,230
2017-04-27T06:20:29.386Z,225
2017-04-27T06:21:11.959Z,215
2017-04-27T06:21:55.322Z,200
2017-04-27T06:22:37.428Z,190
2017-04-27T06:23:19.487Z,175
2017-04-27T06:23:59.916Z,170
2017-04-27T06:24:40.474Z,155
2017-04-27T06:25:20.923Z,140
2017-04-27T06:26:01.420Z,130
2017-04-27T06:26:41.927Z,125
2017-04-27T06:27:23.960Z,125
2017-04-27T06:28:04.455Z,125
2017-04-27T06:28:44.916Z,125
2017-04-27T06:29:25.410Z,120
2017-04-27T06:30:05.900Z,115
2017-04-27T06:30:46.352Z,110
2017-04-27T06:31:27.076Z,100
2017-04-27T06:32:07.691Z,100
2017-04-27T06:32:48.188Z,100
2017-04-27T06:33:28.679Z,110
2017-04-27T06:34:09.168Z,130
2017-04-27T06:34:49.748Z,145
2017-04-27T06:35:30.218Z,140
2017-04-27T06:36:10.685Z,130
2017-04-27T06:36:51.177Z,120
2017-04-27T06:37:31.645Z,105
2017-04-27T06:38:12.103Z,100
2017-04-27T06:38:52.853Z,95
2017-04-27T06:39:33.371Z,95
2017-04-27T06:40:13.836Z,95
2017-04-27T06:40:54.310Z,105
2017-04-27T06:41:34.837Z,110
2017-04-27T06:42:15.305Z,125
2017-04-27T06:42:55.823Z,145
2017-04-27T06:43:36.289Z,165
2017-04-27T06:44:16.781Z,180
2017-04-27T06:44:57.277Z,185
2017-04-27T06:45:37.774Z,195
2017-04-27T06:46:18.250Z,215
2017-04-27T06:46:58.802Z,230
2017-04-27T06:47:39.310Z,245
2017-04-27T06:48:19.803Z,260
2017-04-27T06:49:00.284Z,285
2017-04-27T06:49:40.898Z,295
2017-04-27T06:50:21.382Z,305
2017-04-27T06:51:01.913Z,305
2017-04-27T06:51:42.362Z,315
2017-04-27T06:52:22.878Z,320
2017-04-27T06:53:03.374Z,325
2017-04-27T06:53:43.904Z,325
2017-04-27T06:54:24.386Z,330
2017-04-27T06:55:04.912Z,335
2017-04-27T06:55:45.473Z,335
2017-04-27T06:56:26.027Z,340
2017-04-27T06:57:06.488Z,345
2017-04-27T06:59:24.780Z,275
2017-04-27T07:00:05.258Z,245
2017-04-27T07:00:45.688Z,205
2017-04-27T07:01:26.199Z,180
2017-04-27T07:02:06.684Z,170
2017-04-27T07:02:47.196Z,160
2017-04-27T07:03:27.696Z,165
2017-04-27T07:04:08.170Z,175
2017-04-27T07:04:48.672Z,190
2017-04-27T07:05:29.165Z,205
2017-04-27T07:06:09.664Z,220
2017-04-27T07:06:50.217Z,225
2017-04-27T07:07:30.737Z,225
2017-04-27T07:08:11.247Z,225
2017-04-27T07:08:51.781Z,230
2017-04-27T07:09:32.625Z,230
2017-04-27T07:10:13.169Z,235
2017-04-27T07:10:53.698Z,240
2017-04-27T07:11:34.214Z,240
2017-04-27T07:12:14.688Z,250
2017-04-27T07:12:56.419Z,245
2017-04-27T07:13:38.245Z,245
2017-04-27T07:14:18.835Z,230
2017-04-27T07:14:59.458Z,215
2017-04-27T07:15:39.989Z,200
2017-04-27T07:16:20.639Z,190
2017-04-27T07:17:01.086Z,180
2017-04-27T07:17:41.538Z,175
2017-04-27T07:18:22.053Z,170
2017-04-27T07:19:02.697Z,170
2017-04-27T07:19:43.170Z,165
2017-04-27T07:20:23.709Z,165
2017-04-27T07:22:58.122Z,170
2017-04-27T07:23:38.617Z,180
2017-04-27T07:24:19.139Z,195
2017-04-27T07:24:59.642Z,210
2017-04-27T07:25:40.122Z,235
2017-04-27T07:26:20.710Z,255
2017-04-27T07:27:01.185Z,275
2017-04-27T07:27:49.361Z,295
2017-04-27T07:28:29.889Z,315
2017-04-27T07:29:10.356Z,330
2017-04-27T07:29:50.882Z,350
2017-04-27T07:30:31.408Z,360
2017-04-27T07:31:12.020Z,360
2017-04-27T07:31:52.600Z,360
2017-04-27T07:32:33.095Z,355
2017-04-27T07:33:13.639Z,350
2017-04-27T07:33:54.212Z,345
2017-04-27T07:34:34.790Z,345
2017-04-27T07:35:15.278Z,325
2017-04-27T07:35:55.752Z,320
2017-04-27T07:36:36.307Z,315
2017-04-27T07:37:16.782Z,315
2017-04-27T07:37:57.316Z,310
2017-04-27T07:38:37.925Z,310
2017-04-27T07:39:18.721Z,315
2017-04-27T07:39:59.221Z,315
2017-04-27T07:40:39.695Z,315
2017-04-27T07:41:20.555Z,320
2017-04-27T07:42:01.061Z,325
2017-04-27T07:42:41.648Z,315
2017-04-27T07:43:22.142Z,310
2017-04-27T07:44:02.613Z,305
2017-04-27T07:44:43.115Z,300
2017-04-27T07:45:23.682Z,295
2017-04-27T07:46:04.165Z,295
2017-04-27T07:46:44.874Z,300
2017-04-27T07:47:25.390Z,305
2017-04-27T07:48:05.890Z,310
2017-04-27T07:48:46.326Z,300
2017-04-27T07:49:26.911Z,300
2017-04-27T07:50:07.426Z,315
2017-04-27T07:50:48.349Z,335
2017-04-27T07:51:28.793Z,350
2017-04-27T07:52:09.305Z,355
2017-04-27T07:52:49.834Z,350
2017-04-27T07:53:30.329Z,345
2017-04-27T07:54:10.856Z,340
2017-04-27T07:54:51.374Z,335
2017-04-27T07:55:31.867Z,330
2017-04-27T07:56:12.495Z,320
2017-04-27T07:56:53.325Z,315
2017-04-27T07:57:33.798Z,310
2017-04-27T07:58:14.276Z,310
2017-04-27T07:58:54.752Z,300
2017-04-27T07:59:35.261Z,295
2017-04-27T08:00:15.781Z,295
2017-04-27T08:00:56.381Z,295
2017-04-27T08:01:36.881Z,305
2017-04-27T08:02:17.393Z,310
2017-04-27T08:02:57.911Z,320
2017-04-27T08:03:38.388Z,335
2017-04-27T08:04:18.865Z,345
2017-04-27T08:04:59.350Z,360
2017-04-27T08:05:39.883Z,375
2017-04-27T08:06:20.363Z,380
2017-04-27T08:07:00.870Z,385
2017-04-27T08:07:41.376Z,380
2017-04-27T08:08:21.866Z,375
2017-04-27T08:09:02.364Z,370
2017-04-27T08:09:42.907Z,365
2017-04-27T08:10:23.438Z,370
2017-04-27T08:11:03.928Z,380
2017-04-27T08:11:44.454Z,380
2017-04-27T08:12:24.978Z,380
2017-04-27T08:13:05.446Z,370
2017-04-27T08:13:45.938Z,355
2017-04-27T08:14:26.457Z,340
2017-04-27T08:15:06.935Z,320
2017-04-27T08:15:47.397Z,305
2017-04-27T08:16:27.891Z,290
2017-04-27T08:17:08.488Z,280
2017-04-27T08:17:49.058Z,270
2017-04-27T08:18:29.631Z,255
2017-04-27T08:19:10.119Z,240
2017-04-27T08:19:50.608Z,235
2017-04-27T08:20:31.474Z,265
2017-04-27T08:21:12.090Z,305
2017-04-27T08:21:52.582Z,335
2017-04-27T08:22:34.653Z,365
2017-04-27T08:23:15.827Z,395
2017-04-27T08:23:57.637Z,420
2017-04-27T08:24:38.122Z,430
2017-04-27T08:25:18.644Z,440
2017-04-27T08:25:59.116Z,435
2017-04-27T08:26:39.665Z,430
2017-04-27T08:27:21.027Z,430
2017-04-27T08:28:01.636Z,430
2017-04-27T08:28:42.168Z,425
2017-04-27T08:29:23.209Z,430
2017-04-27T08:30:08.129Z,425
2017-04-27T08:30:48.673Z,430
2017-04-27T08:31:29.732Z,425
2017-04-27T08:32:10.255Z,430
2017-04-27T08:32:51.705Z,430
2017-04-27T08:33:32.277Z,430
2017-04-27T08:34:13.785Z,420
2017-04-27T08:34:54.303Z,410
2017-04-27T08:35:36.229Z,405
2017-04-27T08:36:20.446Z,405
2017-04-27T08:37:00.938Z,405
2017-04-27T08:37:41.448Z,410
2017-04-27T08:38:21.942Z,405
2017-04-27T08:39:02.555Z,410
2017-04-27T08:39:43.036Z,420
2017-04-27T08:40:25.128Z,435
2017-04-27T08:41:06.649Z,450
2017-04-27T08:41:47.158Z,465
2017-04-27T08:42:27.683Z,480
2017-04-27T08:43:08.194Z,485
2017-04-27T08:43:48.736Z,495
2017-04-27T08:44:29.257Z,505
2017-04-27T08:45:09.788Z,515
2017-04-27T08:45:50.290Z,525
2017-04-27T08:46:30.831Z,520
2017-04-27T08:47:11.373Z,510
2017-04-27T08:47:51.875Z,495
2017-04-27T08:48:32.454Z,485
2017-04-27T08:49:12.985Z,470
2017-04-27T08:49:53.572Z,460
2017-04-27T08:50:34.112Z,455
2017-04-27T08:51:14.595Z,450
2017-04-27T08:51:55.069Z,450
2017-04-27T08:52:36.133Z,455
2017-04-27T08:53:17.179Z,460
2017-04-27T08:53:58.547Z,455
2017-04-27T08:54:39.031Z,460
2017-04-27T08:55:24.655Z,460
2017-04-27T08:56:11.631Z,455
2017-04-27T08:56:56.729Z,455
2017-04-27T08:57:37.231Z,450
2017-04-27T08:58:19.454Z,445
2017-04-27T08:58:59.983Z,435
2017-04-27T08:59:40.481Z,430
2017-04-27T09:00:20.926Z,435
2017-04-27T09:01:01.425Z,440
2017-04-27T09:01:41.922Z,445
2017-04-27T09:02:22.455Z,455
2017-04-27T09:03:03.814Z,455
2017-04-27T09:03:45.332Z,470
2017-04-27T09:04:25.850Z,470
2017-04-27T09:05:06.417Z,480
2017-04-27T09:05:47.832Z,495
2017-04-27T09:06:28.309Z,510
2017-04-27T09:07:08.820Z,530
2017-04-27T09:07:49.350Z,520
2017-04-27T09:08:29.852Z,515
2017-04-27T09:09:10.390Z,500
2017-04-27T09:09:50.893Z,510
2017-04-27T09:10:31.430Z,510
2017-04-27T09:11:11.910Z,520
2017-04-27T09:11:52.451Z,525
2017-04-27T09:12:33.517Z,510
2017-04-27T09:13:14.029Z,495
2017-04-27T09:13:54.493Z,475
2017-04-27T09:14:35.024Z,460
2017-04-27T09:15:15.527Z,455
2017-04-27T09:15:56.009Z,430
2017-04-27T09:16:43.992Z,420
2017-04-27T09:17:27.639Z,395
2017-04-27T09:18:08.138Z,385
2017-04-27T09:18:49.528Z,390
2017-04-27T09:19:30.004Z,370
2017-04-27T09:20:11.519Z,365
2017-04-27T09:20:52.849Z,365
2017-04-27T09:21:33.356Z,365
2017-04-27T09:22:13.886Z,360
2017-04-27T09:22:54.360Z,355
2017-04-27T09:23:34.877Z,355
2017-04-27T09:24:15.393Z,345
2017-04-27T09:24:55.887Z,345
2017-04-27T09:25:36.372Z,350
2017-04-27T09:26:16.893Z,360
2017-04-27T09:26:57.398Z,350
2017-04-27T09:27:37.924Z,355
2017-04-27T09:28:18.460Z,370
2017-04-27T09:28:58.960Z,375
2017-04-27T09:29:39.422Z,380
2017-04-27T09:30:19.906Z,385
2017-04-27T09:31:00.386Z,385
2017-04-27T09:31:40.869Z,385
2017-04-27T09:32:23.363Z,390
2017-04-27T09:33:03.858Z,395
2017-04-27T09:33:44.417Z,395
2017-04-27T09:34:24.928Z,400
2017-04-27T09:35:05.406Z,400
2017-04-27T09:35:45.938Z,400
2017-04-27T09:36:26.863Z,400
2017-04-27T09:37:07.504Z,400
2017-04-27T09:37:48.071Z,400
2017-04-27T09:38:28.593Z,405
2017-04-27T09:39:09.113Z,405
2017-04-27T09:39:49.623Z,405
2017-04-27T09:40:32.685Z,420
2017-04-27T09:41:13.207Z,400
2017-04-27T09:41:53.740Z,395
2017-04-27T09:42:34.282Z,395
2017-04-27T09:43:14.793Z,395
2017-04-27T09:43:55.286Z,395
2017-04-27T09:44:35.769Z,395
2017-04-27T09:45:26.874Z,395
2017-04-27T09:46:17.174Z,400
2017-04-27T09:46:57.689Z,400
2017-04-27T09:47:38.197Z,405
2017-04-27T09:48:18.727Z,405
2017-04-27T09:48:59.265Z,410
2017-04-27T09:49:39.771Z,410
2017-04-27T09:50:20.317Z,415
2017-04-27T09:51:00.775Z,415
2017-04-27T09:51:41.311Z,425
2017-04-27T09:52:21.829Z,420
2017-04-27T09:56:36.465Z,445